sensor_id;sensor_type;location;lat;lon;timestamp;temperature;humidity
7654;DHT22;3869;48.406;10.774;2023-05-10T00:02:15;14.50;99.90
7654;DHT22;3869;48.406;10.774;2023-05-10T00:04:44;14.40;99.90
7654;DHT22;3869;48.406;10.774;2023-05-10T00:07:12;14.50;99.90
7654;DHT22;3869;48.406;10.774;2023-05-10T00:09:40;14.50;99.90
7654;DHT22;3869;48.406;10.774;2023-05-10T00:12:08;14.50;99.90
7654;DHT22;3869;48.406;10.774;2023-05-10T00:14:36;14.50;99.90
7654;DHT22;3869;48.406;10.774;2023-05-10T00:17:04;14.40;99.90
7654;DHT22;3869;48.406;10.774;2023-05-10T00:19:32;14.50;99.90
7654;DHT22;3869;48.406;10.774;2023-05-10T00:22:01;14.50;99.90
7654;DHT22;3869;48.406;10.774;2023-05-10T00:24:29;14.50;99.90
7654;DHT22;3869;48.406;10.774;2023-05-10T00:26:57;14.50;99.90
7654;DHT22;3869;48.406;10.774;2023-05-10T00:29:25;14.50;99.90
7654;DHT22;3869;48.406;10.774;2023-05-10T00:31:54;14.40;99.90
7654;DHT22;3869;48.406;10.774;2023-05-10T00:34:23;14.40;99.90
7654;DHT22;3869;48.406;10.774;2023-05-10T00:36:51;14.40;99.90
7654;DHT22;3869;48.406;10.774;2023-05-10T00:39:20;14.40;99.90
7654;DHT22;3869;48.406;10.774;2023-05-10T00:41:48;14.40;99.90
7654;DHT22;3869;48.406;10.774;2023-05-10T00:44:16;14.40;99.90
7654;DHT22;3869;48.406;10.774;2023-05-10T00:46:45;14.30;99.90
7654;DHT22;3869;48.406;10.774;2023-05-10T00:49:13;14.20;99.90
7654;DHT22;3869;48.406;10.774;2023-05-10T00:51:41;14.30;99.90
7654;DHT22;3869;48.406;10.774;2023-05-10T00:54:11;14.30;99.90
7654;DHT22;3869;48.406;10.774;2023-05-10T00:56:41;14.30;99.90
7654;DHT22;3869;48.406;10.774;2023-05-10T00:59:10;14.30;99.90
7654;DHT22;3869;48.406;10.774;2023-05-10T01:01:38;14.30;99.90
7654;DHT22;3869;48.406;10.774;2023-05-10T01:04:06;14.30;99.90
7654;DHT22;3869;48.406;10.774;2023-05-10T01:06:35;14.20;99.90
7654;DHT22;3869;48.406;10.774;2023-05-10T01:09:03;14.20;99.90
7654;DHT22;3869;48.406;10.774;2023-05-10T01:11:31;14.20;99.90
7654;DHT22;3869;48.406;10.774;2023-05-10T01:14:01;14.20;99.90
7654;DHT22;3869;48.406;10.774;2023-05-10T01:16:33;14.20;99.90
7654;DHT22;3869;48.406;10.774;2023-05-10T01:19:04;14.20;99.90
7654;DHT22;3869;48.406;10.774;2023-05-10T01:21:38;14.20;99.90
7654;DHT22;3869;48.406;10.774;2023-05-10T01:27:34;14.20;99.90
7654;DHT22;3869;48.406;10.774;2023-05-10T01:30:35;14.20;99.90
7654;DHT22;3869;48.406;10.774;2023-05-10T01:33:11;14.20;99.90
7654;DHT22;3869;48.406;10.774;2023-05-10T01:35:45;14.20;99.90
7654;DHT22;3869;48.406;10.774;2023-05-10T01:38:18;14.30;99.90
7654;DHT22;3869;48.406;10.774;2023-05-10T01:40:52;14.20;99.90
7654;DHT22;3869;48.406;10.774;2023-05-10T01:43:26;14.20;99.90
7654;DHT22;3869;48.406;10.774;2023-05-10T01:46:00;14.20;99.90
7654;DHT22;3869;48.406;10.774;2023-05-10T01:48:40;14.20;99.90
7654;DHT22;3869;48.406;10.774;2023-05-10T01:51:14;14.10;99.90
7654;DHT22;3869;48.406;10.774;2023-05-10T01:53:46;14.10;99.90
7654;DHT22;3869;48.406;10.774;2023-05-10T01:56:15;14.10;99.90
7654;DHT22;3869;48.406;10.774;2023-05-10T01:58:45;14.10;99.90
7654;DHT22;3869;48.406;10.774;2023-05-10T02:01:15;14.10;99.90
7654;DHT22;3869;48.406;10.774;2023-05-10T02:03:45;14.10;99.90
7654;DHT22;3869;48.406;10.774;2023-05-10T02:06:14;14.10;99.90
7654;DHT22;3869;48.406;10.774;2023-05-10T02:08:45;14.10;99.90
7654;DHT22;3869;48.406;10.774;2023-05-10T02:11:14;14.10;99.90
7654;DHT22;3869;48.406;10.774;2023-05-10T02:13:42;14.10;99.90
7654;DHT22;3869;48.406;10.774;2023-05-10T02:16:12;14.10;99.90
7654;DHT22;3869;48.406;10.774;2023-05-10T02:18:41;14.10;99.90
7654;DHT22;3869;48.406;10.774;2023-05-10T02:21:11;14.00;99.90
7654;DHT22;3869;48.406;10.774;2023-05-10T02:23:40;14.10;99.90
7654;DHT22;3869;48.406;10.774;2023-05-10T02:26:09;14.00;99.90
7654;DHT22;3869;48.406;10.774;2023-05-10T02:28:40;14.10;99.90
7654;DHT22;3869;48.406;10.774;2023-05-10T02:31:10;14.10;99.90
7654;DHT22;3869;48.406;10.774;2023-05-10T02:33:39;14.10;99.90
7654;DHT22;3869;48.406;10.774;2023-05-10T02:36:11;14.10;99.90
7654;DHT22;3869;48.406;10.774;2023-05-10T02:38:41;14.10;99.90
7654;DHT22;3869;48.406;10.774;2023-05-10T02:41:10;14.00;99.90
7654;DHT22;3869;48.406;10.774;2023-05-10T02:43:39;14.00;99.90
7654;DHT22;3869;48.406;10.774;2023-05-10T02:46:08;14.00;99.90
7654;DHT22;3869;48.406;10.774;2023-05-10T02:48:36;14.00;99.90
7654;DHT22;3869;48.406;10.774;2023-05-10T02:51:07;14.00;99.90
7654;DHT22;3869;48.406;10.774;2023-05-10T02:53:38;14.10;99.90
7654;DHT22;3869;48.406;10.774;2023-05-10T02:56:12;14.00;99.90
7654;DHT22;3869;48.406;10.774;2023-05-10T02:58:42;14.00;99.90
7654;DHT22;3869;48.406;10.774;2023-05-10T03:01:10;14.00;99.90
7654;DHT22;3869;48.406;10.774;2023-05-10T03:03:38;14.00;99.90
7654;DHT22;3869;48.406;10.774;2023-05-10T03:06:06;14.10;99.90
7654;DHT22;3869;48.406;10.774;2023-05-10T03:08:34;14.10;99.90
7654;DHT22;3869;48.406;10.774;2023-05-10T03:11:21;14.00;99.90
7654;DHT22;3869;48.406;10.774;2023-05-10T03:14:07;14.00;99.90
7654;DHT22;3869;48.406;10.774;2023-05-10T03:16:42;14.00;99.90
7654;DHT22;3869;48.406;10.774;2023-05-10T03:19:17;14.00;99.90
7654;DHT22;3869;48.406;10.774;2023-05-10T03:21:49;14.00;99.90
7654;DHT22;3869;48.406;10.774;2023-05-10T03:24:20;14.00;99.90
7654;DHT22;3869;48.406;10.774;2023-05-10T03:26:51;13.90;99.90
7654;DHT22;3869;48.406;10.774;2023-05-10T03:29:22;13.90;99.90
7654;DHT22;3869;48.406;10.774;2023-05-10T03:31:50;13.80;99.90
7654;DHT22;3869;48.406;10.774;2023-05-10T03:34:23;13.80;99.90
7654;DHT22;3869;48.406;10.774;2023-05-10T03:36:51;13.80;99.90
7654;DHT22;3869;48.406;10.774;2023-05-10T03:39:19;13.70;99.90
7654;DHT22;3869;48.406;10.774;2023-05-10T03:41:47;13.70;99.90
7654;DHT22;3869;48.406;10.774;2023-05-10T03:44:17;13.70;99.90
7654;DHT22;3869;48.406;10.774;2023-05-10T03:46:45;13.60;99.90
7654;DHT22;3869;48.406;10.774;2023-05-10T03:49:13;13.50;99.90
7654;DHT22;3869;48.406;10.774;2023-05-10T03:51:41;13.50;99.90
7654;DHT22;3869;48.406;10.774;2023-05-10T03:54:09;13.40;99.90
7654;DHT22;3869;48.406;10.774;2023-05-10T03:56:37;13.40;99.90
7654;DHT22;3869;48.406;10.774;2023-05-10T03:59:05;13.30;99.90
7654;DHT22;3869;48.406;10.774;2023-05-10T04:01:35;13.30;99.90
7654;DHT22;3869;48.406;10.774;2023-05-10T04:04:03;13.30;99.90
7654;DHT22;3869;48.406;10.774;2023-05-10T04:06:31;13.30;99.90
7654;DHT22;3869;48.406;10.774;2023-05-10T04:08:59;13.30;99.90
7654;DHT22;3869;48.406;10.774;2023-05-10T04:11:30;13.40;99.90
7654;DHT22;3869;48.406;10.774;2023-05-10T04:13:58;13.40;99.90
7654;DHT22;3869;48.406;10.774;2023-05-10T04:16:26;13.40;99.90
7654;DHT22;3869;48.406;10.774;2023-05-10T04:18:55;13.40;99.90
7654;DHT22;3869;48.406;10.774;2023-05-10T04:21:24;13.30;99.90
7654;DHT22;3869;48.406;10.774;2023-05-10T04:23:52;13.30;99.90
7654;DHT22;3869;48.406;10.774;2023-05-10T04:26:19;13.30;99.90
7654;DHT22;3869;48.406;10.774;2023-05-10T04:28:51;13.30;99.90
7654;DHT22;3869;48.406;10.774;2023-05-10T04:31:19;13.40;99.90
7654;DHT22;3869;48.406;10.774;2023-05-10T04:33:48;13.40;99.90
7654;DHT22;3869;48.406;10.774;2023-05-10T04:36:17;13.30;99.90
7654;DHT22;3869;48.406;10.774;2023-05-10T04:38:45;13.30;99.90
7654;DHT22;3869;48.406;10.774;2023-05-10T04:41:13;13.30;99.90
7654;DHT22;3869;48.406;10.774;2023-05-10T04:43:41;13.30;99.90
7654;DHT22;3869;48.406;10.774;2023-05-10T04:46:09;13.30;99.90
7654;DHT22;3869;48.406;10.774;2023-05-10T04:48:37;13.30;99.90
7654;DHT22;3869;48.406;10.774;2023-05-10T04:51:05;13.30;99.90
7654;DHT22;3869;48.406;10.774;2023-05-10T04:53:34;13.40;99.90
7654;DHT22;3869;48.406;10.774;2023-05-10T04:56:03;13.40;99.90
7654;DHT22;3869;48.406;10.774;2023-05-10T04:58:31;13.40;99.90
7654;DHT22;3869;48.406;10.774;2023-05-10T05:01:05;13.40;99.90
7654;DHT22;3869;48.406;10.774;2023-05-10T05:03:33;13.50;99.90
7654;DHT22;3869;48.406;10.774;2023-05-10T05:06:01;13.50;99.90
7654;DHT22;3869;48.406;10.774;2023-05-10T05:08:30;13.60;99.90
7654;DHT22;3869;48.406;10.774;2023-05-10T05:11:00;13.60;99.90
7654;DHT22;3869;48.406;10.774;2023-05-10T05:13:28;13.60;99.90
7654;DHT22;3869;48.406;10.774;2023-05-10T05:15:56;13.60;99.90
7654;DHT22;3869;48.406;10.774;2023-05-10T05:18:24;13.70;99.90
7654;DHT22;3869;48.406;10.774;2023-05-10T05:20:52;13.60;99.90
7654;DHT22;3869;48.406;10.774;2023-05-10T05:23:20;13.70;99.90
7654;DHT22;3869;48.406;10.774;2023-05-10T05:25:51;13.70;99.90
7654;DHT22;3869;48.406;10.774;2023-05-10T05:28:21;13.80;99.90
7654;DHT22;3869;48.406;10.774;2023-05-10T05:30:49;13.80;99.90
7654;DHT22;3869;48.406;10.774;2023-05-10T05:33:17;13.80;99.90
7654;DHT22;3869;48.406;10.774;2023-05-10T05:35:45;13.80;99.90
7654;DHT22;3869;48.406;10.774;2023-05-10T05:38:17;13.80;99.90
7654;DHT22;3869;48.406;10.774;2023-05-10T05:40:46;13.80;99.90
7654;DHT22;3869;48.406;10.774;2023-05-10T05:43:13;13.80;99.90
7654;DHT22;3869;48.406;10.774;2023-05-10T05:45:43;13.90;99.90
7654;DHT22;3869;48.406;10.774;2023-05-10T05:48:11;14.00;99.90
7654;DHT22;3869;48.406;10.774;2023-05-10T05:50:39;14.00;99.90
7654;DHT22;3869;48.406;10.774;2023-05-10T05:53:07;14.00;99.90
7654;DHT22;3869;48.406;10.774;2023-05-10T05:55:36;13.90;99.90
7654;DHT22;3869;48.406;10.774;2023-05-10T05:58:04;14.00;99.90
7654;DHT22;3869;48.406;10.774;2023-05-10T06:00:32;14.00;99.90
7654;DHT22;3869;48.406;10.774;2023-05-10T06:03:01;14.00;99.90
7654;DHT22;3869;48.406;10.774;2023-05-10T06:05:29;14.00;99.90
7654;DHT22;3869;48.406;10.774;2023-05-10T06:07:59;13.90;99.90
7654;DHT22;3869;48.406;10.774;2023-05-10T06:10:27;14.00;99.90
7654;DHT22;3869;48.406;10.774;2023-05-10T06:12:55;14.00;99.90
7654;DHT22;3869;48.406;10.774;2023-05-10T06:15:23;14.10;99.90
7654;DHT22;3869;48.406;10.774;2023-05-10T06:17:51;14.10;99.90
7654;DHT22;3869;48.406;10.774;2023-05-10T06:20:21;14.10;99.90
7654;DHT22;3869;48.406;10.774;2023-05-10T06:22:49;14.10;99.90
7654;DHT22;3869;48.406;10.774;2023-05-10T06:25:17;14.10;99.90
7654;DHT22;3869;48.406;10.774;2023-05-10T06:27:45;14.20;99.90
7654;DHT22;3869;48.406;10.774;2023-05-10T06:30:19;14.20;99.90
7654;DHT22;3869;48.406;10.774;2023-05-10T06:32:49;14.20;99.90
7654;DHT22;3869;48.406;10.774;2023-05-10T06:35:18;14.20;99.90
7654;DHT22;3869;48.406;10.774;2023-05-10T06:37:47;14.30;99.90
7654;DHT22;3869;48.406;10.774;2023-05-10T06:40:16;14.30;99.90
7654;DHT22;3869;48.406;10.774;2023-05-10T06:42:44;14.30;99.90
7654;DHT22;3869;48.406;10.774;2023-05-10T06:45:13;14.40;99.90
7654;DHT22;3869;48.406;10.774;2023-05-10T06:47:41;14.50;99.90
7654;DHT22;3869;48.406;10.774;2023-05-10T06:50:10;14.60;99.90
7654;DHT22;3869;48.406;10.774;2023-05-10T06:52:39;14.60;99.90
7654;DHT22;3869;48.406;10.774;2023-05-10T06:55:10;14.70;99.90
7654;DHT22;3869;48.406;10.774;2023-05-10T06:57:38;14.70;99.90
7654;DHT22;3869;48.406;10.774;2023-05-10T07:00:07;14.80;99.90
7654;DHT22;3869;48.406;10.774;2023-05-10T07:02:36;14.80;99.90
7654;DHT22;3869;48.406;10.774;2023-05-10T07:05:05;14.80;99.90
7654;DHT22;3869;48.406;10.774;2023-05-10T07:07:33;14.90;99.90
7654;DHT22;3869;48.406;10.774;2023-05-10T07:10:01;15.00;99.90
7654;DHT22;3869;48.406;10.774;2023-05-10T07:12:30;15.00;99.90
7654;DHT22;3869;48.406;10.774;2023-05-10T07:14:58;15.10;99.90
7654;DHT22;3869;48.406;10.774;2023-05-10T07:17:26;15.20;99.90
7654;DHT22;3869;48.406;10.774;2023-05-10T07:19:54;15.30;99.90
7654;DHT22;3869;48.406;10.774;2023-05-10T07:22:22;15.30;99.90
7654;DHT22;3869;48.406;10.774;2023-05-10T07:24:50;15.40;99.90
7654;DHT22;3869;48.406;10.774;2023-05-10T07:27:18;15.40;99.90
7654;DHT22;3869;48.406;10.774;2023-05-10T07:29:47;15.50;99.90
7654;DHT22;3869;48.406;10.774;2023-05-10T07:32:15;15.50;99.90
7654;DHT22;3869;48.406;10.774;2023-05-10T07:34:43;15.50;99.90
7654;DHT22;3869;48.406;10.774;2023-05-10T07:37:11;15.50;99.90
7654;DHT22;3869;48.406;10.774;2023-05-10T07:39:39;15.60;99.90
7654;DHT22;3869;48.406;10.774;2023-05-10T07:42:08;15.60;99.90
7654;DHT22;3869;48.406;10.774;2023-05-10T07:44:36;15.60;99.90
7654;DHT22;3869;48.406;10.774;2023-05-10T07:47:05;15.70;99.90
7654;DHT22;3869;48.406;10.774;2023-05-10T07:49:33;15.70;99.90
7654;DHT22;3869;48.406;10.774;2023-05-10T07:52:03;15.80;99.90
7654;DHT22;3869;48.406;10.774;2023-05-10T07:54:31;15.80;99.90
7654;DHT22;3869;48.406;10.774;2023-05-10T07:56:59;15.80;99.90
7654;DHT22;3869;48.406;10.774;2023-05-10T07:59:27;15.80;99.90
7654;DHT22;3869;48.406;10.774;2023-05-10T08:01:55;15.90;99.90
7654;DHT22;3869;48.406;10.774;2023-05-10T08:04:25;15.90;99.90
7654;DHT22;3869;48.406;10.774;2023-05-10T08:06:53;15.80;99.90
7654;DHT22;3869;48.406;10.774;2023-05-10T08:09:21;15.80;99.90
7654;DHT22;3869;48.406;10.774;2023-05-10T08:11:51;15.90;99.90
7654;DHT22;3869;48.406;10.774;2023-05-10T08:14:19;15.90;99.90
7654;DHT22;3869;48.406;10.774;2023-05-10T08:16:47;15.90;99.90
7654;DHT22;3869;48.406;10.774;2023-05-10T08:19:15;16.10;99.90
7654;DHT22;3869;48.406;10.774;2023-05-10T08:21:47;16.10;99.90
7654;DHT22;3869;48.406;10.774;2023-05-10T08:24:15;16.10;99.90
7654;DHT22;3869;48.406;10.774;2023-05-10T08:26:43;16.10;99.90
7654;DHT22;3869;48.406;10.774;2023-05-10T08:29:11;16.10;99.90
7654;DHT22;3869;48.406;10.774;2023-05-10T08:31:39;16.20;99.90
7654;DHT22;3869;48.406;10.774;2023-05-10T08:34:07;16.10;99.90
7654;DHT22;3869;48.406;10.774;2023-05-10T08:36:35;16.10;99.90
7654;DHT22;3869;48.406;10.774;2023-05-10T08:39:04;16.10;99.90
7654;DHT22;3869;48.406;10.774;2023-05-10T08:41:46;16.20;99.90
7654;DHT22;3869;48.406;10.774;2023-05-10T08:44:15;16.30;99.90
7654;DHT22;3869;48.406;10.774;2023-05-10T08:46:46;16.40;99.90
7654;DHT22;3869;48.406;10.774;2023-05-10T08:49:17;16.40;99.90
7654;DHT22;3869;48.406;10.774;2023-05-10T08:51:52;16.50;99.90
7654;DHT22;3869;48.406;10.774;2023-05-10T08:54:23;16.50;99.90
7654;DHT22;3869;48.406;10.774;2023-05-10T08:56:51;16.40;99.90
7654;DHT22;3869;48.406;10.774;2023-05-10T08:59:20;16.40;99.90
7654;DHT22;3869;48.406;10.774;2023-05-10T09:01:49;16.40;99.90
7654;DHT22;3869;48.406;10.774;2023-05-10T09:04:19;16.30;99.90
7654;DHT22;3869;48.406;10.774;2023-05-10T09:06:47;16.10;99.90
7654;DHT22;3869;48.406;10.774;2023-05-10T09:09:15;16.10;99.90
7654;DHT22;3869;48.406;10.774;2023-05-10T09:11:46;16.00;99.90
7654;DHT22;3869;48.406;10.774;2023-05-10T09:14:15;15.90;99.90
7654;DHT22;3869;48.406;10.774;2023-05-10T09:16:44;15.90;99.90
7654;DHT22;3869;48.406;10.774;2023-05-10T09:19:12;15.80;99.90
7654;DHT22;3869;48.406;10.774;2023-05-10T09:21:40;15.80;99.90
7654;DHT22;3869;48.406;10.774;2023-05-10T09:24:08;15.50;99.90
7654;DHT22;3869;48.406;10.774;2023-05-10T09:26:47;15.40;99.90
7654;DHT22;3869;48.406;10.774;2023-05-10T09:29:16;15.50;99.90
7654;DHT22;3869;48.406;10.774;2023-05-10T09:31:45;15.60;99.90
7654;DHT22;3869;48.406;10.774;2023-05-10T09:34:18;15.60;99.90
7654;DHT22;3869;48.406;10.774;2023-05-10T09:36:53;15.40;99.90
7654;DHT22;3869;48.406;10.774;2023-05-10T09:39:30;15.40;99.90
7654;DHT22;3869;48.406;10.774;2023-05-10T09:42:00;15.30;99.90
7654;DHT22;3869;48.406;10.774;2023-05-10T09:44:30;15.50;99.90
7654;DHT22;3869;48.406;10.774;2023-05-10T09:46:58;15.50;99.90
7654;DHT22;3869;48.406;10.774;2023-05-10T09:49:26;15.50;99.90
7654;DHT22;3869;48.406;10.774;2023-05-10T09:52:00;15.50;99.90
7654;DHT22;3869;48.406;10.774;2023-05-10T09:54:29;15.40;99.90
7654;DHT22;3869;48.406;10.774;2023-05-10T09:56:58;15.20;99.90
7654;DHT22;3869;48.406;10.774;2023-05-10T09:59:28;15.10;99.90
7654;DHT22;3869;48.406;10.774;2023-05-10T10:01:56;15.10;99.90
7654;DHT22;3869;48.406;10.774;2023-05-10T10:04:25;15.00;99.90
7654;DHT22;3869;48.406;10.774;2023-05-10T10:07:01;15.00;99.90
7654;DHT22;3869;48.406;10.774;2023-05-10T10:09:31;15.10;99.90
7654;DHT22;3869;48.406;10.774;2023-05-10T10:12:00;15.10;99.90
7654;DHT22;3869;48.406;10.774;2023-05-10T10:14:29;15.30;99.90
7654;DHT22;3869;48.406;10.774;2023-05-10T10:16:57;15.30;99.90
7654;DHT22;3869;48.406;10.774;2023-05-10T10:19:33;15.50;99.90
7654;DHT22;3869;48.406;10.774;2023-05-10T10:22:02;15.70;99.90
7654;DHT22;3869;48.406;10.774;2023-05-10T10:24:30;15.80;99.90
7654;DHT22;3869;48.406;10.774;2023-05-10T10:27:04;15.90;99.90
7654;DHT22;3869;48.406;10.774;2023-05-10T10:29:39;16.20;99.90
7654;DHT22;3869;48.406;10.774;2023-05-10T10:32:18;16.40;99.90
7654;DHT22;3869;48.406;10.774;2023-05-10T10:34:47;16.50;99.90
7654;DHT22;3869;48.406;10.774;2023-05-10T10:37:15;16.70;99.90
7654;DHT22;3869;48.406;10.774;2023-05-10T10:39:44;16.90;99.90
7654;DHT22;3869;48.406;10.774;2023-05-10T10:42:13;16.90;99.90
7654;DHT22;3869;48.406;10.774;2023-05-10T10:44:41;17.00;99.90
7654;DHT22;3869;48.406;10.774;2023-05-10T10:47:23;17.10;99.90
7654;DHT22;3869;48.406;10.774;2023-05-10T10:50:03;17.20;99.90
7654;DHT22;3869;48.406;10.774;2023-05-10T10:52:32;17.20;99.90
7654;DHT22;3869;48.406;10.774;2023-05-10T10:55:03;17.20;99.90
7654;DHT22;3869;48.406;10.774;2023-05-10T10:57:43;17.20;99.90
7654;DHT22;3869;48.406;10.774;2023-05-10T11:00:28;17.30;99.90
7654;DHT22;3869;48.406;10.774;2023-05-10T11:02:59;17.30;99.90
7654;DHT22;3869;48.406;10.774;2023-05-10T11:05:45;17.30;99.90
7654;DHT22;3869;48.406;10.774;2023-05-10T11:08:18;17.30;99.90
7654;DHT22;3869;48.406;10.774;2023-05-10T11:11:05;17.40;99.90
7654;DHT22;3869;48.406;10.774;2023-05-10T11:13:38;17.40;99.90
7654;DHT22;3869;48.406;10.774;2023-05-10T11:16:12;17.50;99.90
7654;DHT22;3869;48.406;10.774;2023-05-10T11:18:52;17.40;99.90
7654;DHT22;3869;48.406;10.774;2023-05-10T11:21:21;17.40;99.90
7654;DHT22;3869;48.406;10.774;2023-05-10T11:23:50;17.20;99.90
7654;DHT22;3869;48.406;10.774;2023-05-10T11:26:18;17.10;99.90
7654;DHT22;3869;48.406;10.774;2023-05-10T11:28:53;17.10;99.90
7654;DHT22;3869;48.406;10.774;2023-05-10T11:31:22;16.90;99.90
7654;DHT22;3869;48.406;10.774;2023-05-10T11:33:54;16.80;99.90
7654;DHT22;3869;48.406;10.774;2023-05-10T11:36:24;16.90;99.90
7654;DHT22;3869;48.406;10.774;2023-05-10T11:38:53;17.00;99.90
7654;DHT22;3869;48.406;10.774;2023-05-10T11:41:22;17.10;99.90
7654;DHT22;3869;48.406;10.774;2023-05-10T11:43:53;17.20;99.90
7654;DHT22;3869;48.406;10.774;2023-05-10T11:46:23;17.20;99.90
7654;DHT22;3869;48.406;10.774;2023-05-10T11:48:53;17.20;99.90
7654;DHT22;3869;48.406;10.774;2023-05-10T11:51:22;17.20;99.90
7654;DHT22;3869;48.406;10.774;2023-05-10T11:53:53;17.10;99.90
7654;DHT22;3869;48.406;10.774;2023-05-10T11:56:21;17.00;99.90
7654;DHT22;3869;48.406;10.774;2023-05-10T11:58:54;16.90;99.90
7654;DHT22;3869;48.406;10.774;2023-05-10T12:01:23;16.70;99.90
7654;DHT22;3869;48.406;10.774;2023-05-10T12:03:53;16.70;99.90
7654;DHT22;3869;48.406;10.774;2023-05-10T12:06:22;16.70;99.90
7654;DHT22;3869;48.406;10.774;2023-05-10T12:08:50;16.80;99.90
7654;DHT22;3869;48.406;10.774;2023-05-10T12:11:23;16.80;99.90
7654;DHT22;3869;48.406;10.774;2023-05-10T12:13:53;17.00;99.90
7654;DHT22;3869;48.406;10.774;2023-05-10T12:16:23;17.00;99.90
7654;DHT22;3869;48.406;10.774;2023-05-10T12:18:52;17.10;99.90
7654;DHT22;3869;48.406;10.774;2023-05-10T12:21:21;17.20;99.90
7654;DHT22;3869;48.406;10.774;2023-05-10T12:23:51;17.20;99.90
7654;DHT22;3869;48.406;10.774;2023-05-10T12:26:21;17.30;99.90
7654;DHT22;3869;48.406;10.774;2023-05-10T12:28:49;17.40;99.90
7654;DHT22;3869;48.406;10.774;2023-05-10T12:31:19;17.30;99.90
7654;DHT22;3869;48.406;10.774;2023-05-10T12:33:47;17.30;99.90
7654;DHT22;3869;48.406;10.774;2023-05-10T12:36:16;17.20;99.90
7654;DHT22;3869;48.406;10.774;2023-05-10T12:38:45;17.20;99.90
7654;DHT22;3869;48.406;10.774;2023-05-10T12:41:15;17.20;99.90
7654;DHT22;3869;48.406;10.774;2023-05-10T12:43:44;17.30;99.90
7654;DHT22;3869;48.406;10.774;2023-05-10T12:46:14;17.30;99.90
7654;DHT22;3869;48.406;10.774;2023-05-10T12:48:44;17.30;99.90
7654;DHT22;3869;48.406;10.774;2023-05-10T12:51:13;17.30;99.90
7654;DHT22;3869;48.406;10.774;2023-05-10T12:53:44;17.30;99.90
7654;DHT22;3869;48.406;10.774;2023-05-10T12:56:15;16.80;99.90
7654;DHT22;3869;48.406;10.774;2023-05-10T12:58:43;16.70;99.90
7654;DHT22;3869;48.406;10.774;2023-05-10T13:01:14;16.50;99.90
7654;DHT22;3869;48.406;10.774;2023-05-10T13:03:44;16.30;99.90
7654;DHT22;3869;48.406;10.774;2023-05-10T13:06:13;16.10;99.90
7654;DHT22;3869;48.406;10.774;2023-05-10T13:08:41;15.80;99.90
7654;DHT22;3869;48.406;10.774;2023-05-10T13:11:09;15.50;99.90
7654;DHT22;3869;48.406;10.774;2023-05-10T13:13:37;15.40;99.90
7654;DHT22;3869;48.406;10.774;2023-05-10T13:16:06;15.30;99.90
7654;DHT22;3869;48.406;10.774;2023-05-10T13:18:34;15.30;99.90
7654;DHT22;3869;48.406;10.774;2023-05-10T13:21:03;15.30;99.90
7654;DHT22;3869;48.406;10.774;2023-05-10T13:23:32;15.10;99.90
7654;DHT22;3869;48.406;10.774;2023-05-10T13:25:59;15.00;99.90
7654;DHT22;3869;48.406;10.774;2023-05-10T13:28:29;15.00;99.90
7654;DHT22;3869;48.406;10.774;2023-05-10T13:30:56;15.00;99.90
7654;DHT22;3869;48.406;10.774;2023-05-10T13:33:26;15.00;99.90
7654;DHT22;3869;48.406;10.774;2023-05-10T13:35:54;15.00;99.90
7654;DHT22;3869;48.406;10.774;2023-05-10T13:38:23;15.00;99.90
7654;DHT22;3869;48.406;10.774;2023-05-10T13:40:52;15.10;99.90
7654;DHT22;3869;48.406;10.774;2023-05-10T13:43:20;15.20;99.90
7654;DHT22;3869;48.406;10.774;2023-05-10T13:45:48;15.30;99.90
7654;DHT22;3869;48.406;10.774;2023-05-10T13:48:16;15.20;99.90
7654;DHT22;3869;48.406;10.774;2023-05-10T13:50:44;15.20;99.90
7654;DHT22;3869;48.406;10.774;2023-05-10T13:53:12;15.20;99.90
7654;DHT22;3869;48.406;10.774;2023-05-10T13:55:42;15.20;99.90
7654;DHT22;3869;48.406;10.774;2023-05-10T13:58:10;15.20;99.90
7654;DHT22;3869;48.406;10.774;2023-05-10T14:00:38;15.10;99.90
7654;DHT22;3869;48.406;10.774;2023-05-10T14:03:06;14.90;99.90
7654;DHT22;3869;48.406;10.774;2023-05-10T14:05:35;14.80;99.90
7654;DHT22;3869;48.406;10.774;2023-05-10T14:08:03;14.60;99.90
7654;DHT22;3869;48.406;10.774;2023-05-10T14:10:31;14.60;99.90
7654;DHT22;3869;48.406;10.774;2023-05-10T14:13:01;14.50;99.90
7654;DHT22;3869;48.406;10.774;2023-05-10T14:15:29;14.40;99.90
7654;DHT22;3869;48.406;10.774;2023-05-10T14:17:57;14.30;99.90
7654;DHT22;3869;48.406;10.774;2023-05-10T14:20:26;14.30;99.90
7654;DHT22;3869;48.406;10.774;2023-05-10T14:22:53;14.20;99.90
7654;DHT22;3869;48.406;10.774;2023-05-10T14:25:21;14.20;99.90
7654;DHT22;3869;48.406;10.774;2023-05-10T14:27:49;14.10;99.90
7654;DHT22;3869;48.406;10.774;2023-05-10T14:30:19;13.90;99.90
7654;DHT22;3869;48.406;10.774;2023-05-10T14:32:47;13.90;99.90
7654;DHT22;3869;48.406;10.774;2023-05-10T14:35:15;13.80;99.90
7654;DHT22;3869;48.406;10.774;2023-05-10T14:37:45;13.80;99.90
7654;DHT22;3869;48.406;10.774;2023-05-10T14:40:13;13.70;99.90
7654;DHT22;3869;48.406;10.774;2023-05-10T14:42:42;13.60;99.90
7654;DHT22;3869;48.406;10.774;2023-05-10T14:45:10;13.60;99.90
7654;DHT22;3869;48.406;10.774;2023-05-10T14:47:40;13.60;99.90
7654;DHT22;3869;48.406;10.774;2023-05-10T14:50:08;13.60;99.90
7654;DHT22;3869;48.406;10.774;2023-05-10T14:52:42;13.60;99.90
7654;DHT22;3869;48.406;10.774;2023-05-10T14:55:10;13.60;99.90
7654;DHT22;3869;48.406;10.774;2023-05-10T14:57:38;13.50;99.90
7654;DHT22;3869;48.406;10.774;2023-05-10T15:00:07;13.40;99.90
7654;DHT22;3869;48.406;10.774;2023-05-10T15:02:35;13.30;99.90
7654;DHT22;3869;48.406;10.774;2023-05-10T15:05:06;13.30;99.90
7654;DHT22;3869;48.406;10.774;2023-05-10T15:07:34;13.30;99.90
7654;DHT22;3869;48.406;10.774;2023-05-10T15:10:03;13.10;99.90
7654;DHT22;3869;48.406;10.774;2023-05-10T15:12:31;13.10;99.90
7654;DHT22;3869;48.406;10.774;2023-05-10T15:14:59;13.10;99.90
7654;DHT22;3869;48.406;10.774;2023-05-10T15:17:29;13.10;99.90
7654;DHT22;3869;48.406;10.774;2023-05-10T15:19:58;13.10;99.90
7654;DHT22;3869;48.406;10.774;2023-05-10T15:22:27;13.00;99.90
7654;DHT22;3869;48.406;10.774;2023-05-10T15:24:57;12.90;99.90
7654;DHT22;3869;48.406;10.774;2023-05-10T15:27:25;12.90;99.90
7654;DHT22;3869;48.406;10.774;2023-05-10T15:29:53;12.90;99.90
7654;DHT22;3869;48.406;10.774;2023-05-10T15:32:21;12.90;99.90
7654;DHT22;3869;48.406;10.774;2023-05-10T15:34:49;12.90;99.90
7654;DHT22;3869;48.406;10.774;2023-05-10T15:37:17;13.00;99.90
7654;DHT22;3869;48.406;10.774;2023-05-10T15:39:47;13.00;99.90
7654;DHT22;3869;48.406;10.774;2023-05-10T15:42:14;13.00;99.90
7654;DHT22;3869;48.406;10.774;2023-05-10T15:44:42;13.00;99.90
7654;DHT22;3869;48.406;10.774;2023-05-10T15:47:11;13.00;99.90
7654;DHT22;3869;48.406;10.774;2023-05-10T15:49:39;12.90;99.90
7654;DHT22;3869;48.406;10.774;2023-05-10T15:52:07;12.90;99.90
7654;DHT22;3869;48.406;10.774;2023-05-10T15:54:35;12.90;99.90
7654;DHT22;3869;48.406;10.774;2023-05-10T15:57:04;12.90;99.90
7654;DHT22;3869;48.406;10.774;2023-05-10T15:59:33;12.90;99.90
7654;DHT22;3869;48.406;10.774;2023-05-10T16:02:02;12.90;99.90
7654;DHT22;3869;48.406;10.774;2023-05-10T16:04:30;12.90;99.90